sensor_id;sensor_type;location;lat;lon;timestamp;temperature;humidity
44166;DHT22;30476;53.468;9.826;2023-04-06T00:00:34;4.30;96.30
44166;DHT22;30476;53.468;9.826;2023-04-06T00:03:00;4.20;96.30
44166;DHT22;30476;53.468;9.826;2023-04-06T00:05:26;4.20;96.40
44166;DHT22;30476;53.468;9.826;2023-04-06T00:07:53;4.10;96.50
44166;DHT22;30476;53.468;9.826;2023-04-06T00:10:21;4.10;96.70
44166;DHT22;30476;53.468;9.826;2023-04-06T00:12:47;4.10;96.70
44166;DHT22;30476;53.468;9.826;2023-04-06T00:15:12;4.00;96.70
44166;DHT22;30476;53.468;9.826;2023-04-06T00:17:38;4.00;96.80
44166;DHT22;30476;53.468;9.826;2023-04-06T00:20:04;3.90;96.80
44166;DHT22;30476;53.468;9.826;2023-04-06T00:22:30;3.90;96.90
44166;DHT22;30476;53.468;9.826;2023-04-06T00:24:56;3.90;97.00
44166;DHT22;30476;53.468;9.826;2023-04-06T00:27:22;3.80;97.10
44166;DHT22;30476;53.468;9.826;2023-04-06T00:29:47;3.80;97.10
44166;DHT22;30476;53.468;9.826;2023-04-06T00:32:13;3.80;97.20
44166;DHT22;30476;53.468;9.826;2023-04-06T00:34:39;3.80;97.30
44166;DHT22;30476;53.468;9.826;2023-04-06T00:37:05;3.70;97.30
44166;DHT22;30476;53.468;9.826;2023-04-06T00:39:30;3.70;97.60
44166;DHT22;30476;53.468;9.826;2023-04-06T00:41:56;3.70;97.30
44166;DHT22;30476;53.468;9.826;2023-04-06T00:44:23;3.60;97.30
44166;DHT22;30476;53.468;9.826;2023-04-06T00:46:49;3.60;97.30
44166;DHT22;30476;53.468;9.826;2023-04-06T00:49:15;3.50;97.30
44166;DHT22;30476;53.468;9.826;2023-04-06T00:51:41;3.50;97.40
44166;DHT22;30476;53.468;9.826;2023-04-06T00:54:06;3.50;97.40
44166;DHT22;30476;53.468;9.826;2023-04-06T00:56:32;3.40;97.50
44166;DHT22;30476;53.468;9.826;2023-04-06T00:58:58;3.40;97.50
44166;DHT22;30476;53.468;9.826;2023-04-06T01:01:24;3.40;97.60
44166;DHT22;30476;53.468;9.826;2023-04-06T01:03:51;3.30;97.60
44166;DHT22;30476;53.468;9.826;2023-04-06T01:06:17;3.30;97.70
44166;DHT22;30476;53.468;9.826;2023-04-06T01:08:43;3.30;97.80
44166;DHT22;30476;53.468;9.826;2023-04-06T01:11:08;3.30;97.90
44166;DHT22;30476;53.468;9.826;2023-04-06T01:13:34;3.30;97.90
44166;DHT22;30476;53.468;9.826;2023-04-06T01:16:00;3.30;98.00
44166;DHT22;30476;53.468;9.826;2023-04-06T01:18:27;3.30;98.00
44166;DHT22;30476;53.468;9.826;2023-04-06T01:20:53;3.20;98.00
44166;DHT22;30476;53.468;9.826;2023-04-06T01:23:19;3.20;98.10
44166;DHT22;30476;53.468;9.826;2023-04-06T01:25:45;3.20;98.10
44166;DHT22;30476;53.468;9.826;2023-04-06T01:28:11;3.20;98.10
44166;DHT22;30476;53.468;9.826;2023-04-06T01:30:36;3.20;98.10
44166;DHT22;30476;53.468;9.826;2023-04-06T01:33:14;3.10;98.20
44166;DHT22;30476;53.468;9.826;2023-04-06T01:35:40;3.10;98.20
44166;DHT22;30476;53.468;9.826;2023-04-06T01:38:06;3.10;98.30
44166;DHT22;30476;53.468;9.826;2023-04-06T01:40:32;3.10;98.30
44166;DHT22;30476;53.468;9.826;2023-04-06T01:42:58;3.10;98.30
44166;DHT22;30476;53.468;9.826;2023-04-06T01:45:23;3.10;98.40
44166;DHT22;30476;53.468;9.826;2023-04-06T01:47:49;3.10;98.50
44166;DHT22;30476;53.468;9.826;2023-04-06T01:50:15;3.10;98.50
44166;DHT22;30476;53.468;9.826;2023-04-06T01:52:41;3.00;98.50
44166;DHT22;30476;53.468;9.826;2023-04-06T01:55:07;3.00;98.60
44166;DHT22;30476;53.468;9.826;2023-04-06T01:57:32;3.00;98.70
44166;DHT22;30476;53.468;9.826;2023-04-06T01:59:59;3.00;98.60
44166;DHT22;30476;53.468;9.826;2023-04-06T02:02:24;2.90;98.70
44166;DHT22;30476;53.468;9.826;2023-04-06T02:04:50;2.90;98.80
44166;DHT22;30476;53.468;9.826;2023-04-06T02:07:16;2.90;98.90
44166;DHT22;30476;53.468;9.826;2023-04-06T02:09:42;2.90;99.00
44166;DHT22;30476;53.468;9.826;2023-04-06T02:12:07;2.80;99.40
44166;DHT22;30476;53.468;9.826;2023-04-06T02:14:33;2.80;99.10
44166;DHT22;30476;53.468;9.826;2023-04-06T02:16:59;2.80;99.00
44166;DHT22;30476;53.468;9.826;2023-04-06T02:19:25;2.80;99.00
44166;DHT22;30476;53.468;9.826;2023-04-06T02:21:50;2.80;99.10
44166;DHT22;30476;53.468;9.826;2023-04-06T02:24:16;2.70;99.10
44166;DHT22;30476;53.468;9.826;2023-04-06T02:26:42;2.70;99.20
44166;DHT22;30476;53.468;9.826;2023-04-06T02:29:08;2.70;99.30
44166;DHT22;30476;53.468;9.826;2023-04-06T02:31:34;2.70;99.30
44166;DHT22;30476;53.468;9.826;2023-04-06T02:33:59;2.70;99.50
44166;DHT22;30476;53.468;9.826;2023-04-06T02:36:25;2.70;99.50
44166;DHT22;30476;53.468;9.826;2023-04-06T02:38:51;2.70;99.50
44166;DHT22;30476;53.468;9.826;2023-04-06T02:41:17;2.70;99.60
44166;DHT22;30476;53.468;9.826;2023-04-06T02:43:43;2.70;99.60
44166;DHT22;30476;53.468;9.826;2023-04-06T02:46:08;2.60;99.70
44166;DHT22;30476;53.468;9.826;2023-04-06T02:48:34;2.60;99.60
44166;DHT22;30476;53.468;9.826;2023-04-06T02:51:02;2.60;99.50
44166;DHT22;30476;53.468;9.826;2023-04-06T02:53:28;2.60;99.40
44166;DHT22;30476;53.468;9.826;2023-04-06T02:55:55;2.60;99.40
44166;DHT22;30476;53.468;9.826;2023-04-06T02:58:21;2.60;99.50
44166;DHT22;30476;53.468;9.826;2023-04-06T03:00:47;2.50;99.40
44166;DHT22;30476;53.468;9.826;2023-04-06T03:03:13;2.60;99.60
44166;DHT22;30476;53.468;9.826;2023-04-06T03:05:39;2.50;99.60
44166;DHT22;30476;53.468;9.826;2023-04-06T03:08:06;2.50;99.60
44166;DHT22;30476;53.468;9.826;2023-04-06T03:10:32;2.50;99.70
44166;DHT22;30476;53.468;9.826;2023-04-06T03:12:58;2.50;99.80
44166;DHT22;30476;53.468;9.826;2023-04-06T03:15:23;2.50;99.80
44166;DHT22;30476;53.468;9.826;2023-04-06T03:17:49;2.40;99.80
44166;DHT22;30476;53.468;9.826;2023-04-06T03:20:15;2.40;99.90
44166;DHT22;30476;53.468;9.826;2023-04-06T03:22:41;2.40;99.90
44166;DHT22;30476;53.468;9.826;2023-04-06T03:25:07;2.30;99.90
44166;DHT22;30476;53.468;9.826;2023-04-06T03:27:32;2.30;99.90
44166;DHT22;30476;53.468;9.826;2023-04-06T03:29:58;2.30;99.80
44166;DHT22;30476;53.468;9.826;2023-04-06T03:32:24;2.30;99.80
44166;DHT22;30476;53.468;9.826;2023-04-06T03:34:50;2.30;99.80
44166;DHT22;30476;53.468;9.826;2023-04-06T03:37:15;2.20;99.70
44166;DHT22;30476;53.468;9.826;2023-04-06T03:39:41;2.20;99.80
44166;DHT22;30476;53.468;9.826;2023-04-06T03:42:07;2.20;99.70
44166;DHT22;30476;53.468;9.826;2023-04-06T03:44:33;2.20;99.70
44166;DHT22;30476;53.468;9.826;2023-04-06T03:46:58;2.20;99.70
44166;DHT22;30476;53.468;9.826;2023-04-06T03:49:24;2.20;99.60
44166;DHT22;30476;53.468;9.826;2023-04-06T03:51:50;2.20;99.70
44166;DHT22;30476;53.468;9.826;2023-04-06T03:54:16;2.20;99.70
44166;DHT22;30476;53.468;9.826;2023-04-06T03:56:42;2.10;99.60
44166;DHT22;30476;53.468;9.826;2023-04-06T03:59:07;2.20;99.80
44166;DHT22;30476;53.468;9.826;2023-04-06T04:01:33;2.10;99.70
44166;DHT22;30476;53.468;9.826;2023-04-06T04:03:59;2.10;99.60
44166;DHT22;30476;53.468;9.826;2023-04-06T04:06:24;2.00;99.50
44166;DHT22;30476;53.468;9.826;2023-04-06T04:08:51;2.00;99.50
44166;DHT22;30476;53.468;9.826;2023-04-06T04:11:16;2.00;99.50
44166;DHT22;30476;53.468;9.826;2023-04-06T04:13:42;1.90;99.50
44166;DHT22;30476;53.468;9.826;2023-04-06T04:16:08;1.90;99.50
44166;DHT22;30476;53.468;9.826;2023-04-06T04:18:34;1.90;99.50
44166;DHT22;30476;53.468;9.826;2023-04-06T04:20:59;1.90;99.50
44166;DHT22;30476;53.468;9.826;2023-04-06T04:23:25;1.90;99.50
44166;DHT22;30476;53.468;9.826;2023-04-06T04:25:51;1.90;99.60
44166;DHT22;30476;53.468;9.826;2023-04-06T04:28:17;1.80;99.60
44166;DHT22;30476;53.468;9.826;2023-04-06T04:30:43;1.80;99.70
44166;DHT22;30476;53.468;9.826;2023-04-06T04:33:09;1.80;99.50
44166;DHT22;30476;53.468;9.826;2023-04-06T04:35:35;1.80;99.50
44166;DHT22;30476;53.468;9.826;2023-04-06T04:38:00;1.80;99.50
44166;DHT22;30476;53.468;9.826;2023-04-06T04:40:26;1.80;99.50
44166;DHT22;30476;53.468;9.826;2023-04-06T04:42:52;1.80;99.40
44166;DHT22;30476;53.468;9.826;2023-04-06T04:45:17;1.80;99.50
44166;DHT22;30476;53.468;9.826;2023-04-06T04:47:43;1.70;99.50
44166;DHT22;30476;53.468;9.826;2023-04-06T04:50:09;1.70;99.50
44166;DHT22;30476;53.468;9.826;2023-04-06T04:52:37;1.70;99.60
44166;DHT22;30476;53.468;9.826;2023-04-06T04:55:03;1.70;99.60
44166;DHT22;30476;53.468;9.826;2023-04-06T04:57:29;1.60;99.60
44166;DHT22;30476;53.468;9.826;2023-04-06T04:59:55;1.60;99.70
44166;DHT22;30476;53.468;9.826;2023-04-06T05:02:20;1.50;99.80
44166;DHT22;30476;53.468;9.826;2023-04-06T05:04:46;1.50;99.90
44166;DHT22;30476;53.468;9.826;2023-04-06T05:07:12;1.50;99.90
44166;DHT22;30476;53.468;9.826;2023-04-06T05:09:38;1.50;99.90
44166;DHT22;30476;53.468;9.826;2023-04-06T05:12:03;1.40;99.90
44166;DHT22;30476;53.468;9.826;2023-04-06T05:14:29;1.40;99.90
44166;DHT22;30476;53.468;9.826;2023-04-06T05:16:55;1.40;99.90
44166;DHT22;30476;53.468;9.826;2023-04-06T05:19:21;1.40;99.90
44166;DHT22;30476;53.468;9.826;2023-04-06T05:21:47;1.40;99.90
44166;DHT22;30476;53.468;9.826;2023-04-06T05:24:12;1.40;99.90
44166;DHT22;30476;53.468;9.826;2023-04-06T05:26:38;1.40;99.90
44166;DHT22;30476;53.468;9.826;2023-04-06T05:29:04;1.50;99.90
44166;DHT22;30476;53.468;9.826;2023-04-06T05:31:30;1.50;99.90
44166;DHT22;30476;53.468;9.826;2023-04-06T05:33:56;1.50;99.90
44166;DHT22;30476;53.468;9.826;2023-04-06T05:36:22;1.50;99.90
44166;DHT22;30476;53.468;9.826;2023-04-06T05:38:48;1.50;99.90
44166;DHT22;30476;53.468;9.826;2023-04-06T05:41:15;1.60;99.90
44166;DHT22;30476;53.468;9.826;2023-04-06T05:43:41;1.60;99.90
44166;DHT22;30476;53.468;9.826;2023-04-06T05:46:07;1.60;99.90
44166;DHT22;30476;53.468;9.826;2023-04-06T05:48:33;1.60;99.90
44166;DHT22;30476;53.468;9.826;2023-04-06T05:50:59;1.60;99.90
44166;DHT22;30476;53.468;9.826;2023-04-06T05:53:25;1.70;99.90
44166;DHT22;30476;53.468;9.826;2023-04-06T05:55:51;1.70;99.90
44166;DHT22;30476;53.468;9.826;2023-04-06T05:58:17;1.70;99.90
44166;DHT22;30476;53.468;9.826;2023-04-06T06:00:43;1.80;99.90
44166;DHT22;30476;53.468;9.826;2023-04-06T06:03:12;1.90;99.90
44166;DHT22;30476;53.468;9.826;2023-04-06T06:05:38;1.90;99.90
44166;DHT22;30476;53.468;9.826;2023-04-06T06:08:03;2.00;99.90
44166;DHT22;30476;53.468;9.826;2023-04-06T06:10:29;2.10;99.90
44166;DHT22;30476;53.468;9.826;2023-04-06T06:12:55;2.10;99.90
44166;DHT22;30476;53.468;9.826;2023-04-06T06:15:21;2.20;99.90
44166;DHT22;30476;53.468;9.826;2023-04-06T06:17:46;2.30;99.90
44166;DHT22;30476;53.468;9.826;2023-04-06T06:20:12;2.40;99.90
44166;DHT22;30476;53.468;9.826;2023-04-06T06:22:38;2.50;99.90
44166;DHT22;30476;53.468;9.826;2023-04-06T06:25:05;2.60;99.90
44166;DHT22;30476;53.468;9.826;2023-04-06T06:27:31;2.70;99.90
44166;DHT22;30476;53.468;9.826;2023-04-06T06:29:57;2.80;99.90
44166;DHT22;30476;53.468;9.826;2023-04-06T06:32:23;2.90;99.90
44166;DHT22;30476;53.468;9.826;2023-04-06T06:34:48;3.00;99.90
44166;DHT22;30476;53.468;9.826;2023-04-06T06:37:14;3.20;99.90
44166;DHT22;30476;53.468;9.826;2023-04-06T06:39:40;3.30;99.90
44166;DHT22;30476;53.468;9.826;2023-04-06T06:42:05;3.50;99.90
44166;DHT22;30476;53.468;9.826;2023-04-06T06:44:31;3.70;99.90
44166;DHT22;30476;53.468;9.826;2023-04-06T06:46:57;3.80;99.90
44166;DHT22;30476;53.468;9.826;2023-04-06T06:49:23;4.10;99.90
44166;DHT22;30476;53.468;9.826;2023-04-06T06:51:49;4.30;99.80
44166;DHT22;30476;53.468;9.826;2023-04-06T06:54:14;4.60;99.10
44166;DHT22;30476;53.468;9.826;2023-04-06T06:56:40;4.80;98.30
44166;DHT22;30476;53.468;9.826;2023-04-06T06:59:06;5.00;98.00
44166;DHT22;30476;53.468;9.826;2023-04-06T07:01:33;5.30;97.10
44166;DHT22;30476;53.468;9.826;2023-04-06T07:03:59;5.50;96.70
44166;DHT22;30476;53.468;9.826;2023-04-06T07:06:25;5.70;95.80
44166;DHT22;30476;53.468;9.826;2023-04-06T07:08:51;5.80;94.60
44166;DHT22;30476;53.468;9.826;2023-04-06T07:11:17;6.00;94.00
44166;DHT22;30476;53.468;9.826;2023-04-06T07:13:43;6.20;93.90
44166;DHT22;30476;53.468;9.826;2023-04-06T07:16:09;6.40;93.40
44166;DHT22;30476;53.468;9.826;2023-04-06T07:18:34;6.50;93.40
44166;DHT22;30476;53.468;9.826;2023-04-06T07:21:00;6.70;93.20
44166;DHT22;30476;53.468;9.826;2023-04-06T07:23:26;6.90;92.90
44166;DHT22;30476;53.468;9.826;2023-04-06T07:25:52;7.00;92.50
44166;DHT22;30476;53.468;9.826;2023-04-06T07:28:19;7.20;91.90
44166;DHT22;30476;53.468;9.826;2023-04-06T07:30:45;7.30;91.60
44166;DHT22;30476;53.468;9.826;2023-04-06T07:33:11;7.50;91.00
44166;DHT22;30476;53.468;9.826;2023-04-06T07:35:37;7.60;88.70
44166;DHT22;30476;53.468;9.826;2023-04-06T07:38:03;7.70;87.90
44166;DHT22;30476;53.468;9.826;2023-04-06T07:40:30;7.80;86.50
44166;DHT22;30476;53.468;9.826;2023-04-06T07:42:57;8.00;86.30
44166;DHT22;30476;53.468;9.826;2023-04-06T07:45:23;8.10;84.70
44166;DHT22;30476;53.468;9.826;2023-04-06T07:47:48;8.20;85.10
44166;DHT22;30476;53.468;9.826;2023-04-06T07:50:15;8.30;85.10
44166;DHT22;30476;53.468;9.826;2023-04-06T07:52:41;8.40;83.90
44166;DHT22;30476;53.468;9.826;2023-04-06T07:55:07;8.50;83.50
44166;DHT22;30476;53.468;9.826;2023-04-06T07:57:33;8.60;81.80
44166;DHT22;30476;53.468;9.826;2023-04-06T07:59:59;8.70;81.20
44166;DHT22;30476;53.468;9.826;2023-04-06T08:02:25;8.80;81.80
44166;DHT22;30476;53.468;9.826;2023-04-06T08:04:50;8.90;81.20
44166;DHT22;30476;53.468;9.826;2023-04-06T08:07:16;9.00;79.60
44166;DHT22;30476;53.468;9.826;2023-04-06T08:09:42;9.10;80.00
44166;DHT22;30476;53.468;9.826;2023-04-06T08:12:08;9.30;80.20
44166;DHT22;30476;53.468;9.826;2023-04-06T08:14:34;9.30;78.70
44166;DHT22;30476;53.468;9.826;2023-04-06T08:17:00;9.40;79.00
44166;DHT22;30476;53.468;9.826;2023-04-06T08:19:26;9.50;79.20
44166;DHT22;30476;53.468;9.826;2023-04-06T08:21:51;9.60;77.80
44166;DHT22;30476;53.468;9.826;2023-04-06T08:24:17;9.70;76.60
44166;DHT22;30476;53.468;9.826;2023-04-06T08:26:43;9.80;76.20
44166;DHT22;30476;53.468;9.826;2023-04-06T08:29:09;9.90;76.80
44166;DHT22;30476;53.468;9.826;2023-04-06T08:31:35;10.00;74.60
44166;DHT22;30476;53.468;9.826;2023-04-06T08:34:03;10.00;72.30
44166;DHT22;30476;53.468;9.826;2023-04-06T08:36:29;10.10;71.80
44166;DHT22;30476;53.468;9.826;2023-04-06T08:38:54;10.10;72.00
44166;DHT22;30476;53.468;9.826;2023-04-06T08:41:20;10.20;72.00
44166;DHT22;30476;53.468;9.826;2023-04-06T08:43:58;10.30;73.40
44166;DHT22;30476;53.468;9.826;2023-04-06T08:46:24;10.50;71.60
44166;DHT22;30476;53.468;9.826;2023-04-06T08:49:03;10.50;71.40
44166;DHT22;30476;53.468;9.826;2023-04-06T08:51:29;10.60;70.90
44166;DHT22;30476;53.468;9.826;2023-04-06T08:53:59;10.70;70.80
44166;DHT22;30476;53.468;9.826;2023-04-06T08:56:26;10.80;70.10
44166;DHT22;30476;53.468;9.826;2023-04-06T08:58:53;10.80;69.40
44166;DHT22;30476;53.468;9.826;2023-04-06T09:01:25;10.90;69.00
44166;DHT22;30476;53.468;9.826;2023-04-06T09:03:56;11.00;69.20
44166;DHT22;30476;53.468;9.826;2023-04-06T09:06:22;11.00;67.60
44166;DHT22;30476;53.468;9.826;2023-04-06T09:08:48;11.10;68.60
44166;DHT22;30476;53.468;9.826;2023-04-06T09:11:14;11.20;68.80
44166;DHT22;30476;53.468;9.826;2023-04-06T09:13:51;11.30;66.90
44166;DHT22;30476;53.468;9.826;2023-04-06T09:16:18;11.40;65.90
44166;DHT22;30476;53.468;9.826;2023-04-06T09:18:44;11.40;63.20
44166;DHT22;30476;53.468;9.826;2023-04-06T09:21:10;11.40;62.70
44166;DHT22;30476;53.468;9.826;2023-04-06T09:23:37;11.50;61.40
44166;DHT22;30476;53.468;9.826;2023-04-06T09:26:16;11.50;61.60
44166;DHT22;30476;53.468;9.826;2023-04-06T09:28:50;11.60;61.00
44166;DHT22;30476;53.468;9.826;2023-04-06T09:31:25;11.60;60.30
44166;DHT22;30476;53.468;9.826;2023-04-06T09:33:52;11.70;59.80
44166;DHT22;30476;53.468;9.826;2023-04-06T09:36:18;11.70;60.00
44166;DHT22;30476;53.468;9.826;2023-04-06T09:38:57;11.70;60.00
44166;DHT22;30476;53.468;9.826;2023-04-06T09:41:28;11.80;60.10
44166;DHT22;30476;53.468;9.826;2023-04-06T09:44:05;11.80;59.50
44166;DHT22;30476;53.468;9.826;2023-04-06T09:46:33;12.00;59.50
44166;DHT22;30476;53.468;9.826;2023-04-06T09:49:03;12.10;59.90
44166;DHT22;30476;53.468;9.826;2023-04-06T09:51:31;12.20;59.00
44166;DHT22;30476;53.468;9.826;2023-04-06T09:53:57;12.30;59.20
44166;DHT22;30476;53.468;9.826;2023-04-06T09:56:29;12.40;59.40
44166;DHT22;30476;53.468;9.826;2023-04-06T09:59:02;12.60;59.40
44166;DHT22;30476;53.468;9.826;2023-04-06T10:01:32;12.70;57.80
44166;DHT22;30476;53.468;9.826;2023-04-06T10:04:18;12.80;58.60
44166;DHT22;30476;53.468;9.826;2023-04-06T10:06:46;13.00;58.10
44166;DHT22;30476;53.468;9.826;2023-04-06T10:09:17;13.10;58.40
44166;DHT22;30476;53.468;9.826;2023-04-06T10:11:44;13.20;56.40
44166;DHT22;30476;53.468;9.826;2023-04-06T10:14:10;13.30;55.70
44166;DHT22;30476;53.468;9.826;2023-04-06T10:16:37;13.50;56.10
44166;DHT22;30476;53.468;9.826;2023-04-06T10:19:24;13.60;55.30
44166;DHT22;30476;53.468;9.826;2023-04-06T10:21:54;13.70;54.70
44166;DHT22;30476;53.468;9.826;2023-04-06T10:24:20;13.80;53.40
44166;DHT22;30476;53.468;9.826;2023-04-06T10:27:03;13.80;53.30
44166;DHT22;30476;53.468;9.826;2023-04-06T10:29:47;13.90;54.70
44166;DHT22;30476;53.468;9.826;2023-04-06T10:32:14;14.00;54.40
44166;DHT22;30476;53.468;9.826;2023-04-06T10:34:40;14.10;53.50
44166;DHT22;30476;53.468;9.826;2023-04-06T10:37:16;14.30;53.70
44166;DHT22;30476;53.468;9.826;2023-04-06T10:40:02;14.40;53.70
44166;DHT22;30476;53.468;9.826;2023-04-06T10:42:37;14.60;52.10
44166;DHT22;30476;53.468;9.826;2023-04-06T10:45:18;14.70;52.80
44166;DHT22;30476;53.468;9.826;2023-04-06T10:47:44;15.00;54.20
44166;DHT22;30476;53.468;9.826;2023-04-06T10:50:13;15.20;54.40
44166;DHT22;30476;53.468;9.826;2023-04-06T10:52:40;15.40;52.90
44166;DHT22;30476;53.468;9.826;2023-04-06T10:55:08;15.50;52.00
44166;DHT22;30476;53.468;9.826;2023-04-06T10:57:35;15.60;50.40
44166;DHT22;30476;53.468;9.826;2023-04-06T11:00:04;15.80;50.90
44166;DHT22;30476;53.468;9.826;2023-04-06T11:02:31;15.90;52.10
44166;DHT22;30476;53.468;9.826;2023-04-06T11:04:58;16.10;52.00
44166;DHT22;30476;53.468;9.826;2023-04-06T11:07:25;16.10;49.40
44166;DHT22;30476;53.468;9.826;2023-04-06T11:09:52;16.10;49.40
44166;DHT22;30476;53.468;9.826;2023-04-06T11:12:26;16.20;50.00
44166;DHT22;30476;53.468;9.826;2023-04-06T11:15:00;16.30;49.70
44166;DHT22;30476;53.468;9.826;2023-04-06T11:17:36;16.40;48.20
44166;DHT22;30476;53.468;9.826;2023-04-06T11:20:03;16.40;49.10
44166;DHT22;30476;53.468;9.826;2023-04-06T11:22:31;16.40;48.50
44166;DHT22;30476;53.468;9.826;2023-04-06T11:25:06;16.50;47.50
44166;DHT22;30476;53.468;9.826;2023-04-06T11:27:34;16.60;49.00
44166;DHT22;30476;53.468;9.826;2023-04-06T11:30:00;16.70;47.00
44166;DHT22;30476;53.468;9.826;2023-04-06T11:32:26;16.80;48.30
44166;DHT22;30476;53.468;9.826;2023-04-06T11:34:52;16.90;47.20
44166;DHT22;30476;53.468;9.826;2023-04-06T11:37:18;17.00;45.80
44166;DHT22;30476;53.468;9.826;2023-04-06T11:39:51;17.00;46.10
44166;DHT22;30476;53.468;9.826;2023-04-06T11:42:24;17.00;45.90
44166;DHT22;30476;53.468;9.826;2023-04-06T11:44:53;17.10;45.50
44166;DHT22;30476;53.468;9.826;2023-04-06T11:47:19;17.10;45.00
44166;DHT22;30476;53.468;9.826;2023-04-06T11:49:46;17.20;47.10
44166;DHT22;30476;53.468;9.826;2023-04-06T11:52:20;17.20;45.00
44166;DHT22;30476;53.468;9.826;2023-04-06T11:54:48;17.40;44.40
44166;DHT22;30476;53.468;9.826;2023-04-06T11:57:14;17.50;44.40
44166;DHT22;30476;53.468;9.826;2023-04-06T11:59:40;17.70;44.20
44166;DHT22;30476;53.468;9.826;2023-04-06T12:02:06;17.80;44.60
44166;DHT22;30476;53.468;9.826;2023-04-06T12:04:32;18.00;45.50
44166;DHT22;30476;53.468;9.826;2023-04-06T12:06:58;18.00;44.10
44166;DHT22;30476;53.468;9.826;2023-04-06T12:09:24;18.10;45.00
44166;DHT22;30476;53.468;9.826;2023-04-06T12:11:50;18.30;43.20
44166;DHT22;30476;53.468;9.826;2023-04-06T12:14:16;18.50;41.40
44166;DHT22;30476;53.468;9.826;2023-04-06T12:16:42;18.60;41.40
44166;DHT22;30476;53.468;9.826;2023-04-06T12:19:07;18.60;42.20
44166;DHT22;30476;53.468;9.826;2023-04-06T12:21:36;18.60;42.50
44166;DHT22;30476;53.468;9.826;2023-04-06T12:24:06;18.70;42.20
44166;DHT22;30476;53.468;9.826;2023-04-06T12:26:33;18.80;41.90
44166;DHT22;30476;53.468;9.826;2023-04-06T12:28:59;18.90;42.30
44166;DHT22;30476;53.468;9.826;2023-04-06T12:31:34;19.00;41.20
44166;DHT22;30476;53.468;9.826;2023-04-06T12:34:00;19.00;41.10
44166;DHT22;30476;53.468;9.826;2023-04-06T12:36:27;19.10;41.30
44166;DHT22;30476;53.468;9.826;2023-04-06T12:38:53;19.10;39.90
44166;DHT22;30476;53.468;9.826;2023-04-06T12:41:19;19.10;41.60
44166;DHT22;30476;53.468;9.826;2023-04-06T12:43:45;19.10;39.60
44166;DHT22;30476;53.468;9.826;2023-04-06T12:46:11;19.10;40.70
44166;DHT22;30476;53.468;9.826;2023-04-06T12:48:38;19.10;41.10
44166;DHT22;30476;53.468;9.826;2023-04-06T12:51:05;19.30;42.10
44166;DHT22;30476;53.468;9.826;2023-04-06T12:53:32;19.40;40.10
44166;DHT22;30476;53.468;9.826;2023-04-06T12:55:59;19.40;40.40
44166;DHT22;30476;53.468;9.826;2023-04-06T12:58:25;19.40;39.10
44166;DHT22;30476;53.468;9.826;2023-04-06T13:00:55;19.30;40.30
44166;DHT22;30476;53.468;9.826;2023-04-06T13:03:23;19.30;38.80
44166;DHT22;30476;53.468;9.826;2023-04-06T13:05:52;19.40;39.40
44166;DHT22;30476;53.468;9.826;2023-04-06T13:08:18;19.40;39.50
44166;DHT22;30476;53.468;9.826;2023-04-06T13:10:47;19.40;39.10
44166;DHT22;30476;53.468;9.826;2023-04-06T13:13:17;19.40;38.70
44166;DHT22;30476;53.468;9.826;2023-04-06T13:15:43;19.40;39.30
44166;DHT22;30476;53.468;9.826;2023-04-06T13:18:09;19.30;38.60
44166;DHT22;30476;53.468;9.826;2023-04-06T13:20:35;19.20;38.70
44166;DHT22;30476;53.468;9.826;2023-04-06T13:23:01;19.10;38.50
44166;DHT22;30476;53.468;9.826;2023-04-06T13:25:27;19.10;40.70
44166;DHT22;30476;53.468;9.826;2023-04-06T13:27:58;19.20;39.10
44166;DHT22;30476;53.468;9.826;2023-04-06T13:30:24;19.20;40.10
44166;DHT22;30476;53.468;9.826;2023-04-06T13:32:50;19.20;37.50
44166;DHT22;30476;53.468;9.826;2023-04-06T13:35:16;19.20;38.50
44166;DHT22;30476;53.468;9.826;2023-04-06T13:37:43;19.10;40.40
44166;DHT22;30476;53.468;9.826;2023-04-06T13:40:09;19.20;39.80
44166;DHT22;30476;53.468;9.826;2023-04-06T13:42:35;19.30;39.00
44166;DHT22;30476;53.468;9.826;2023-04-06T13:45:01;19.30;39.40
44166;DHT22;30476;53.468;9.826;2023-04-06T13:47:27;19.40;37.50
44166;DHT22;30476;53.468;9.826;2023-04-06T13:49:53;19.50;37.00
44166;DHT22;30476;53.468;9.826;2023-04-06T13:52:19;19.50;37.20
44166;DHT22;30476;53.468;9.826;2023-04-06T13:54:46;19.60;36.60
44166;DHT22;30476;53.468;9.826;2023-04-06T13:57:12;19.50;37.70
44166;DHT22;30476;53.468;9.826;2023-04-06T13:59:38;19.60;35.70
44166;DHT22;30476;53.468;9.826;2023-04-06T14:02:07;19.60;36.40
44166;DHT22;30476;53.468;9.826;2023-04-06T14:04:33;19.70;37.10
44166;DHT22;30476;53.468;9.826;2023-04-06T14:07:00;19.60;36.90
44166;DHT22;30476;53.468;9.826;2023-04-06T14:09:26;19.50;36.00
44166;DHT22;30476;53.468;9.826;2023-04-06T14:11:52;19.50;36.10
44166;DHT22;30476;53.468;9.826;2023-04-06T14:14:18;19.50;37.80
44166;DHT22;30476;53.468;9.826;2023-04-06T14:16:44;19.20;36.20
44166;DHT22;30476;53.468;9.826;2023-04-06T14:19:16;19.10;36.40
44166;DHT22;30476;53.468;9.826;2023-04-06T14:21:47;19.00;36.90
44166;DHT22;30476;53.468;9.826;2023-04-06T14:24:14;18.90;36.50
44166;DHT22;30476;53.468;9.826;2023-04-06T14:26:41;18.80;36.00
44166;DHT22;30476;53.468;9.826;2023-04-06T14:29:08;18.60;37.00
44166;DHT22;30476;53.468;9.826;2023-04-06T14:31:34;18.50;36.50
44166;DHT22;30476;53.468;9.826;2023-04-06T14:34:02;18.30;36.10
44166;DHT22;30476;53.468;9.826;2023-04-06T14:36:32;18.10;35.70
44166;DHT22;30476;53.468;9.826;2023-04-06T14:39:05;18.00;35.70
44166;DHT22;30476;53.468;9.826;2023-04-06T14:41:31;17.80;36.40
44166;DHT22;30476;53.468;9.826;2023-04-06T14:43:57;17.80;37.10
44166;DHT22;30476;53.468;9.826;2023-04-06T14:46:23;17.70;37.40
44166;DHT22;30476;53.468;9.826;2023-04-06T14:48:50;17.60;37.50
44166;DHT22;30476;53.468;9.826;2023-04-06T14:51:16;17.30;37.50
44166;DHT22;30476;53.468;9.826;2023-04-06T14:53:42;17.20;38.50
44166;DHT22;30476;53.468;9.826;2023-04-06T14:56:08;17.20;38.20
44166;DHT22;30476;53.468;9.826;2023-04-06T14:58:34;17.10;36.50
44166;DHT22;30476;53.468;9.826;2023-04-06T15:01:01;17.00;36.00
44166;DHT22;30476;53.468;9.826;2023-04-06T15:03:28;16.90;36.00
44166;DHT22;30476;53.468;9.826;2023-04-06T15:05:55;16.80;36.20
44166;DHT22;30476;53.468;9.826;2023-04-06T15:08:24;16.80;36.60
44166;DHT22;30476;53.468;9.826;2023-04-06T15:10:51;16.70;36.70
44166;DHT22;30476;53.468;9.826;2023-04-06T15:13:18;16.70;37.30
44166;DHT22;30476;53.468;9.826;2023-04-06T15:15:44;16.60;37.10
44166;DHT22;30476;53.468;9.826;2023-04-06T15:18:10;16.50;37.60
44166;DHT22;30476;53.468;9.826;2023-04-06T15:20:36;16.50;38.20
44166;DHT22;30476;53.468;9.826;2023-04-06T15:23:03;16.40;38.30
44166;DHT22;30476;53.468;9.826;2023-04-06T15:25:29;16.40;37.90
44166;DHT22;30476;53.468;9.826;2023-04-06T15:27:56;16.30;38.20
44166;DHT22;30476;53.468;9.826;2023-04-06T15:30:22;16.30;38.50
44166;DHT22;30476;53.468;9.826;2023-04-06T15:32:59;16.10;37.60
44166;DHT22;30476;53.468;9.826;2023-04-06T15:35:29;16.10;38.50
44166;DHT22;30476;53.468;9.826;2023-04-06T15:37:55;16.10;37.90